createdAt,value
2022-12-03T00:01:36.525Z,99801.79
2022-12-03T00:03:41.563Z,99802.73
2022-12-03T00:05:49.081Z,99802.81
2022-12-03T00:07:54.764Z,99802.44
2022-12-03T00:09:59.551Z,99800.80
2022-12-03T00:12:05.001Z,99804.88
2022-12-03T00:14:10.270Z,99797.69
2022-12-03T00:16:15.645Z,99796.58
2022-12-03T00:18:20.711Z,99798.55
2022-12-03T00:20:26.552Z,99803.39
2022-12-03T00:22:31.329Z,99803.77
2022-12-03T00:24:36.208Z,99804.05
2022-12-03T00:26:40.987Z,99802.60
2022-12-03T00:28:48.486Z,99798.73
2022-12-03T00:30:53.355Z,99796.42
2022-12-03T00:32:58.123Z,99795.84
2022-12-03T00:35:06.495Z,99793.77
2022-12-03T00:37:11.147Z,99789.10
2022-12-03T00:39:15.938Z,99786.50
2022-12-03T00:41:20.947Z,99788.46
2022-12-03T00:43:25.687Z,99799.67
2022-12-03T00:45:30.692Z,99803.04
2022-12-03T00:47:35.405Z,99798.86
2022-12-03T00:49:40.604Z,99802.10
2022-12-03T00:51:45.265Z,99808.38
2022-12-03T00:53:50.328Z,99810.63
2022-12-03T00:55:55.113Z,99805.65
2022-12-03T00:57:59.737Z,99808.39
2022-12-03T01:00:08.956Z,99808.14
2022-12-03T01:02:13.667Z,99811.55
2022-12-03T01:04:18.530Z,99811.63
2022-12-03T01:06:23.352Z,99812.70
2022-12-03T01:08:28.090Z,99813.29
2022-12-03T01:10:32.885Z,99811.95
2022-12-03T01:12:37.575Z,99813.30
2022-12-03T01:14:42.532Z,99815.06
2022-12-03T01:16:47.793Z,99820.09
2022-12-03T01:18:52.632Z,99821.48
2022-12-03T01:20:57.359Z,99820.74
2022-12-03T01:23:02.121Z,99823.10
2022-12-03T01:25:08.153Z,99822.36
2022-12-03T01:27:12.840Z,99822.70
2022-12-03T01:29:17.562Z,99820.73
2022-12-03T01:31:22.459Z,99824.98
2022-12-03T01:33:32.122Z,99827.59
2022-12-03T01:35:36.910Z,99820.16
2022-12-03T01:37:41.565Z,99818.98
2022-12-03T01:39:46.163Z,99816.25
2022-12-03T01:41:52.690Z,99811.75
2022-12-03T01:43:58.387Z,99812.02
2022-12-03T01:46:03.900Z,99811.92
2022-12-03T01:48:13.540Z,99813.17
2022-12-03T01:50:23.254Z,99812.33
2022-12-03T01:52:31.428Z,99809.12
2022-12-03T01:54:41.381Z,99810.02
2022-12-03T01:56:46.864Z,99808.52
2022-12-03T01:58:51.532Z,99810.86
2022-12-03T02:00:56.755Z,99811.28
2022-12-03T02:03:04.309Z,99818.89
2022-12-03T02:05:19.063Z,99821.48
2022-12-03T02:07:27.492Z,99808.98
2022-12-03T02:09:32.243Z,99809.88
2022-12-03T02:11:39.753Z,99806.73
2022-12-03T02:13:45.395Z,99804.54
2022-12-03T02:15:50.169Z,99806.29
2022-12-03T02:17:55.483Z,99808.95
2022-12-03T02:20:01.047Z,99810.10
2022-12-03T02:22:08.466Z,99805.69
2022-12-03T02:24:22.325Z,99802.63
2022-12-03T02:26:27.299Z,99806.94
2022-12-03T02:28:32.092Z,99809.18
2022-12-03T02:30:37.236Z,99811.48
2022-12-03T02:32:42.087Z,99810.42
2022-12-03T02:34:47.447Z,99814.30
2022-12-03T02:36:52.167Z,99811.59
2022-12-03T02:38:57.001Z,99809.84
2022-12-03T02:41:07.181Z,99805.56
2022-12-03T02:43:13.732Z,99806.36
2022-12-03T02:45:21.092Z,99802.67
2022-12-03T02:47:25.798Z,99805.14
2022-12-03T02:49:30.551Z,99807.97
2022-12-03T02:51:35.742Z,99808.92
2022-12-03T02:53:43.969Z,99803.73
2022-12-03T02:55:49.347Z,99805.29
2022-12-03T02:57:54.386Z,99796.52
2022-12-03T02:59:59.295Z,99792.52
2022-12-03T03:02:04.229Z,99791.00
2022-12-03T03:04:08.936Z,99797.85
2022-12-03T03:06:14.818Z,99796.30
2022-12-03T03:08:20.354Z,99793.89
2022-12-03T03:10:26.121Z,99794.81
2022-12-03T03:12:37.635Z,99792.39
2022-12-03T03:14:43.896Z,99794.42
2022-12-03T03:16:48.584Z,99791.32
2022-12-03T03:18:53.638Z,99789.54
2022-12-03T03:20:58.534Z,99787.57
2022-12-03T03:23:12.944Z,99788.02
2022-12-03T03:25:21.539Z,99787.27
2022-12-03T03:27:26.512Z,99789.16
2022-12-03T03:29:33.426Z,99790.11
2022-12-03T03:31:39.120Z,99789.73
2022-12-03T03:33:46.669Z,99791.63
2022-12-03T03:35:51.660Z,99788.93
2022-12-03T03:37:56.904Z,99786.70
2022-12-03T03:40:01.738Z,99788.85
2022-12-03T03:42:07.479Z,99801.02
2022-12-03T03:44:13.099Z,99801.77
2022-12-03T03:46:19.226Z,99808.86
2022-12-03T03:48:24.411Z,99810.87
2022-12-03T03:50:31.387Z,99808.64
2022-12-03T03:52:36.723Z,99807.27
2022-12-03T03:54:41.411Z,99805.25
2022-12-03T03:56:46.154Z,99802.20
2022-12-03T03:58:50.905Z,99794.20
2022-12-03T04:00:55.953Z,99797.95
2022-12-03T04:03:03.669Z,99797.53
2022-12-03T04:05:14.399Z,99799.27
2022-12-03T04:07:19.067Z,99793.33
2022-12-03T04:09:23.821Z,99791.74
2022-12-03T04:11:28.785Z,99791.55
2022-12-03T04:13:33.524Z,99791.75
2022-12-03T04:15:38.426Z,99788.46
2022-12-03T04:17:43.175Z,99790.34
2022-12-03T04:19:47.856Z,99787.48
2022-12-03T04:21:52.615Z,99790.66
2022-12-03T04:23:57.284Z,99785.13
2022-12-03T04:26:01.987Z,99787.11
2022-12-03T04:28:06.874Z,99787.00
2022-12-03T04:30:13.008Z,99789.00
2022-12-03T04:32:17.703Z,99786.02
2022-12-03T04:34:22.635Z,99779.76
2022-12-03T04:36:27.442Z,99779.42
2022-12-03T04:38:32.407Z,99789.23
2022-12-03T04:40:37.149Z,99798.67
2022-12-03T04:42:41.838Z,99799.13
2022-12-03T04:44:47.101Z,99798.66
2022-12-03T04:46:51.776Z,99800.48
2022-12-03T04:48:56.537Z,99799.36
2022-12-03T04:51:01.549Z,99795.95
2022-12-03T04:53:06.259Z,99797.58
2022-12-03T04:55:11.242Z,99799.39
2022-12-03T04:57:15.873Z,99795.05
2022-12-03T04:59:20.711Z,99787.46
2022-12-03T05:01:25.890Z,99788.91
2022-12-03T05:03:30.780Z,99788.30
2022-12-03T05:05:35.471Z,99790.30
2022-12-03T05:07:40.253Z,99787.95
2022-12-03T05:09:45.098Z,99785.34
2022-12-03T05:11:49.810Z,99785.27
2022-12-03T05:13:54.589Z,99784.30
2022-12-03T05:15:59.285Z,99778.77
2022-12-03T05:18:04.284Z,99778.32
2022-12-03T05:20:11.542Z,99777.72
2022-12-03T05:22:16.320Z,99780.74
2022-12-03T05:24:22.022Z,99786.15
2022-12-03T05:26:26.633Z,99786.13
2022-12-03T05:28:31.328Z,99786.20
2022-12-03T05:30:36.131Z,99796.93
2022-12-03T05:32:40.898Z,99795.12
2022-12-03T05:34:45.875Z,99790.54
2022-12-03T05:36:50.630Z,99791.52
2022-12-03T05:38:55.305Z,99788.92
2022-12-03T05:41:00.013Z,99783.73
2022-12-03T05:43:04.756Z,99785.05
2022-12-03T05:45:10.715Z,99786.75
2022-12-03T05:47:15.459Z,99791.02
2022-12-03T05:49:20.148Z,99797.01
2022-12-03T05:51:24.857Z,99794.85
2022-12-03T05:53:29.553Z,99790.88
2022-12-03T05:55:34.449Z,99788.80
2022-12-03T05:57:39.462Z,99789.42
2022-12-03T05:59:46.996Z,99790.72
2022-12-03T06:01:51.657Z,99793.80
2022-12-03T06:03:56.374Z,99795.64
2022-12-03T06:06:01.141Z,99793.59
2022-12-03T06:08:06.176Z,99793.77
2022-12-03T06:10:14.025Z,99799.95
2022-12-03T06:12:18.662Z,99801.09
2022-12-03T06:14:26.306Z,99804.14
2022-12-03T06:16:31.584Z,99805.02
2022-12-03T06:18:36.512Z,99805.66
2022-12-03T06:20:41.736Z,99804.63
2022-12-03T06:22:46.891Z,99806.81
2022-12-03T06:24:51.902Z,99806.23
2022-12-03T06:26:56.780Z,99804.52
2022-12-03T06:29:04.790Z,99807.11
2022-12-03T06:31:09.453Z,99808.20
2022-12-03T06:33:14.227Z,99806.60
2022-12-03T06:35:18.997Z,99811.04
2022-12-03T06:37:23.945Z,99810.84
2022-12-03T06:39:28.613Z,99810.82
2022-12-03T06:41:33.227Z,99814.31
2022-12-03T06:43:37.895Z,99813.66
2022-12-03T06:45:47.554Z,99817.14
2022-12-03T06:47:53.066Z,99811.59
2022-12-03T06:49:57.824Z,99812.94
2022-12-03T06:52:02.566Z,99809.09
2022-12-03T06:54:07.470Z,99808.31
2022-12-03T06:56:13.237Z,99811.77
2022-12-03T06:58:18.324Z,99812.30
2022-12-03T07:00:23.754Z,99816.15
2022-12-03T07:02:31.761Z,99819.89
2022-12-03T07:04:36.469Z,99817.13
2022-12-03T07:06:41.154Z,99816.86
2022-12-03T07:08:46.021Z,99817.48
2022-12-03T07:10:51.013Z,99816.33
2022-12-03T07:12:55.988Z,99821.70
2022-12-03T07:15:00.728Z,99822.66
2022-12-03T07:17:07.329Z,99825.48
2022-12-03T07:19:12.308Z,99824.84
2022-12-03T07:21:17.045Z,99826.94
2022-12-03T07:23:22.009Z,99823.57
2022-12-03T07:25:27.135Z,99824.10
2022-12-03T07:27:32.020Z,99825.05
2022-12-03T07:29:36.719Z,99821.40
2022-12-03T07:31:41.764Z,99825.43
2022-12-03T07:33:47.175Z,99822.54
2022-12-03T07:35:52.189Z,99821.30
2022-12-03T07:37:56.855Z,99824.95
2022-12-03T07:40:01.849Z,99819.19
2022-12-03T07:42:06.624Z,99823.34
2022-12-03T07:44:14.556Z,99822.67
2022-12-03T07:46:19.971Z,99820.36
2022-12-03T07:48:26.401Z,99820.81
2022-12-03T07:50:31.355Z,99822.96
2022-12-03T07:52:36.053Z,99825.31
2022-12-03T07:54:40.752Z,99815.31
2022-12-03T07:56:45.742Z,99821.37
2022-12-03T07:58:50.463Z,99818.73
2022-12-03T08:00:55.471Z,99816.08
2022-12-03T08:03:00.209Z,99820.80
2022-12-03T08:05:06.042Z,99823.93
2022-12-03T08:07:10.799Z,99820.77
2022-12-03T08:09:16.307Z,99827.58
2022-12-03T08:11:21.288Z,99829.75
2022-12-03T08:13:27.248Z,99826.63
2022-12-03T08:15:37.228Z,99830.63
2022-12-03T08:17:46.751Z,99834.89
2022-12-03T08:19:53.072Z,99839.14
2022-12-03T08:22:01.419Z,99839.14
2022-12-03T08:24:15.430Z,99841.71
2022-12-03T08:26:23.541Z,99844.09
2022-12-03T08:28:28.494Z,99842.55
2022-12-03T08:30:33.485Z,99843.59
2022-12-03T08:32:38.199Z,99849.04
2022-12-03T08:34:44.689Z,99843.06
2022-12-03T08:36:52.489Z,99849.52
2022-12-03T08:39:00.022Z,99849.05
2022-12-03T08:41:14.492Z,99848.05
2022-12-03T08:43:22.246Z,99846.98
2022-12-03T08:45:37.042Z,99844.64
2022-12-03T08:47:41.866Z,99840.52
2022-12-03T08:49:51.522Z,99844.05
2022-12-03T08:52:00.449Z,99845.26
2022-12-03T08:54:12.778Z,99845.11
2022-12-03T08:56:26.864Z,99845.90
2022-12-03T08:58:39.988Z,99847.96
2022-12-03T09:00:45.512Z,99849.87
2022-12-03T09:02:53.100Z,99851.45
2022-12-03T09:04:57.810Z,99854.34
2022-12-03T09:07:02.637Z,99851.19
2022-12-03T09:09:07.397Z,99852.77
2022-12-03T09:11:12.571Z,99850.98
2022-12-03T09:13:17.352Z,99855.92
2022-12-03T09:15:22.052Z,99856.37
2022-12-03T09:17:27.792Z,99855.11
2022-12-03T09:19:32.419Z,99854.06
2022-12-03T09:21:37.124Z,99844.33
2022-12-03T09:23:44.888Z,99846.23
2022-12-03T09:25:49.583Z,99843.89
2022-12-03T09:27:54.344Z,99838.64
2022-12-03T09:29:59.361Z,99836.50
2022-12-03T09:32:04.415Z,99832.54
2022-12-03T09:34:09.610Z,99832.74
2022-12-03T09:36:14.705Z,99830.59
2022-12-03T09:38:19.430Z,99827.95
2022-12-03T09:40:24.423Z,99827.89
2022-12-03T09:42:29.426Z,99830.23
2022-12-03T09:44:36.330Z,99832.13
2022-12-03T09:46:42.732Z,99829.33
2022-12-03T09:48:48.476Z,99830.58
2022-12-03T09:50:53.863Z,99828.77
2022-12-03T09:53:03.691Z,99824.36
2022-12-03T09:55:15.029Z,99819.81
2022-12-03T09:57:20.277Z,99818.75
2022-12-03T09:59:30.498Z,99819.68
2022-12-03T10:01:35.456Z,99817.27
2022-12-03T10:03:44.335Z,99812.30
2022-12-03T10:05:49.614Z,99812.67
2022-12-03T10:07:57.085Z,99810.56
2022-12-03T10:10:01.905Z,99808.89
2022-12-03T10:12:10.918Z,99807.13
2022-12-03T10:14:19.487Z,99807.16
2022-12-03T10:16:25.156Z,99811.52
2022-12-03T10:18:38.236Z,99810.86
2022-12-03T10:20:46.401Z,99809.40
2022-12-03T10:22:51.364Z,99811.11
2022-12-03T10:25:07.903Z,99813.25
2022-12-03T10:27:24.171Z,99808.63
2022-12-03T10:29:34.079Z,99809.18
2022-12-03T10:31:39.266Z,99811.23
2022-12-03T10:33:45.888Z,99812.02
2022-12-03T10:35:50.573Z,99809.10
2022-12-03T10:38:03.291Z,99809.90
2022-12-03T10:40:12.206Z,99800.79
2022-12-03T10:42:18.567Z,99798.36
2022-12-03T10:44:24.122Z,99793.05
2022-12-03T10:46:29.153Z,99794.46
2022-12-03T10:48:33.891Z,99793.52
2022-12-03T10:50:46.115Z,99783.80
2022-12-03T10:52:50.836Z,99778.73
2022-12-03T10:54:56.189Z,99779.73
2022-12-03T10:57:01.768Z,99773.40
2022-12-03T10:59:08.553Z,99775.42
2022-12-03T11:01:18.762Z,99778.25
2022-12-03T11:03:25.532Z,99775.99
2022-12-03T11:05:30.305Z,99774.41
2022-12-03T11:07:38.517Z,99769.61
2022-12-03T11:09:45.688Z,99767.04
2022-12-03T11:11:51.251Z,99764.36
2022-12-03T11:13:56.805Z,99769.44
2022-12-03T11:16:02.889Z,99764.63
2022-12-03T11:18:07.624Z,99759.26
2022-12-03T11:20:34.885Z,99764.55
2022-12-03T11:22:48.615Z,99757.98
2022-12-03T11:25:31.088Z,99762.28
2022-12-03T11:27:37.182Z,99764.78
2022-12-03T11:29:56.782Z,99761.26
2022-12-03T11:32:01.490Z,99759.59
2022-12-03T11:34:36.728Z,99757.94
2022-12-03T11:37:18.711Z,99756.11
2022-12-03T11:39:54.013Z,99753.02
2022-12-03T11:42:37.599Z,99755.69
2022-12-03T11:44:42.340Z,99753.81
2022-12-03T11:46:48.151Z,99755.30
2022-12-03T11:48:57.582Z,99752.16
2022-12-03T11:51:02.436Z,99749.05
2022-12-03T11:53:15.359Z,99746.24
2022-12-03T11:55:28.404Z,99743.14
2022-12-03T11:57:38.560Z,99737.20
2022-12-03T12:00:00.806Z,99731.21
2022-12-03T12:02:20.879Z,99730.16
2022-12-03T12:04:36.735Z,99725.62
2022-12-03T12:06:48.687Z,99720.09
2022-12-03T12:09:00.202Z,99721.03
2022-12-03T12:11:15.812Z,99713.80
2022-12-03T12:13:50.865Z,99719.40
2022-12-03T12:15:55.812Z,99725.06
2022-12-03T12:18:39.629Z,99724.61
2022-12-03T12:20:44.317Z,99719.37
2022-12-03T12:22:49.196Z,99718.72
2022-12-03T12:24:56.002Z,99716.39
2022-12-03T12:27:03.119Z,99708.98
2022-12-03T12:29:07.821Z,99713.80
2022-12-03T12:31:13.337Z,99712.66
2022-12-03T12:33:23.477Z,99720.06
2022-12-03T12:35:30.015Z,99722.87
2022-12-03T12:37:44.919Z,99717.39
2022-12-03T12:39:56.412Z,99714.70
2022-12-03T12:42:02.737Z,99711.73
2022-12-03T12:44:11.669Z,99713.64
2022-12-03T12:46:46.690Z,99718.95
2022-12-03T12:48:41.122Z,99717.79
2022-12-03T12:50:49.094Z,99719.35
2022-12-03T12:52:59.049Z,99720.58
2022-12-03T12:55:06.434Z,99717.59
2022-12-03T12:57:16.533Z,99711.52
2022-12-03T12:59:22.781Z,99711.46
2022-12-03T13:01:29.315Z,99707.90
2022-12-03T13:03:38.024Z,99710.67
2022-12-03T13:05:46.446Z,99708.82
2022-12-03T13:07:54.647Z,99706.51
2022-12-03T13:10:02.234Z,99708.48
2022-12-03T13:12:18.753Z,99705.82
2022-12-03T13:14:24.888Z,99709.74
2022-12-03T13:16:32.420Z,99708.91
2022-12-03T13:18:47.698Z,99717.25
2022-12-03T13:20:52.510Z,99715.75
2022-12-03T13:22:57.355Z,99714.16
2022-12-03T13:25:44.004Z,99711.62
2022-12-03T13:27:48.050Z,99717.52
2022-12-03T13:29:56.268Z,99715.77
2022-12-03T13:32:11.079Z,99720.41
2022-12-03T13:34:20.187Z,99719.05
2022-12-03T13:36:35.561Z,99716.48
2022-12-03T13:38:40.289Z,99719.77
2022-12-03T13:40:45.415Z,99718.77
2022-12-03T13:42:50.203Z,99717.13
2022-12-03T13:44:56.399Z,99720.16
2022-12-03T13:47:19.135Z,99720.92
2022-12-03T13:49:24.968Z,99716.69
2022-12-03T13:51:32.529Z,99716.23
2022-12-03T13:53:39.530Z,99711.69
2022-12-03T13:55:46.971Z,99712.02
2022-12-03T13:57:51.705Z,99709.05
2022-12-03T13:59:56.953Z,99711.64
2022-12-03T14:02:01.815Z,99714.00
2022-12-03T14:04:06.812Z,99721.88
2022-12-03T14:06:11.674Z,99719.41
2022-12-03T14:08:16.429Z,99719.69
2022-12-03T14:10:21.348Z,99722.66
2022-12-03T14:12:26.071Z,99716.77
2022-12-03T14:14:30.838Z,99715.15
2022-12-03T14:16:35.678Z,99715.08
2022-12-03T14:18:40.488Z,99718.84
2022-12-03T14:20:45.206Z,99711.88
2022-12-03T14:22:51.264Z,99717.48
2022-12-03T14:24:57.959Z,99719.67
2022-12-03T14:27:02.842Z,99724.30
2022-12-03T14:29:09.014Z,99719.71
2022-12-03T14:31:13.999Z,99726.02
2022-12-03T14:33:18.688Z,99731.38
2022-12-03T14:35:23.419Z,99740.73
2022-12-03T14:37:28.254Z,99740.71
2022-12-03T14:39:32.964Z,99739.75
2022-12-03T14:41:37.597Z,99742.22
2022-12-03T14:43:42.237Z,99732.98
2022-12-03T14:45:46.926Z,99733.65
2022-12-03T14:47:51.597Z,99734.48
2022-12-03T14:49:56.856Z,99733.86
2022-12-03T14:52:02.050Z,99732.28
2022-12-03T14:54:06.776Z,99729.67
2022-12-03T14:56:11.418Z,99730.16
2022-12-03T14:58:16.117Z,99736.17
2022-12-03T15:00:22.892Z,99739.66
2022-12-03T15:02:27.737Z,99739.02
2022-12-03T15:04:32.774Z,99742.21
2022-12-03T15:06:37.517Z,99743.41
2022-12-03T15:08:42.612Z,99743.27
2022-12-03T15:10:47.213Z,99738.90
2022-12-03T15:12:51.929Z,99740.58
2022-12-03T15:14:56.586Z,99740.29
2022-12-03T15:17:01.360Z,99738.77
2022-12-03T15:19:06.222Z,99738.45
2022-12-03T15:21:11.145Z,99744.79
2022-12-03T15:23:16.578Z,99746.47
2022-12-03T15:25:21.283Z,99741.83
2022-12-03T15:27:28.174Z,99742.34
2022-12-03T15:29:32.913Z,99746.75
2022-12-03T15:31:37.697Z,99745.62
2022-12-03T15:33:42.900Z,99741.05
2022-12-03T15:35:47.681Z,99737.44
2022-12-03T15:37:52.667Z,99737.14
2022-12-03T15:39:58.135Z,99734.52
2022-12-03T15:42:03.497Z,99735.61
2022-12-03T15:44:08.159Z,99733.14
2022-12-03T15:46:13.595Z,99734.19
2022-12-03T15:48:18.582Z,99733.65
2022-12-03T15:50:23.733Z,99735.13
2022-12-03T15:52:28.564Z,99737.04
2022-12-03T15:54:33.651Z,99735.69
2022-12-03T15:56:41.828Z,99739.19
2022-12-03T15:58:47.867Z,99743.23
2022-12-03T16:00:56.257Z,99734.20
2022-12-03T16:03:01.448Z,99736.57
2022-12-03T16:05:08.953Z,99728.45
2022-12-03T16:07:13.677Z,99727.95
2022-12-03T16:09:26.685Z,99725.54
2022-12-03T16:11:33.153Z,99726.51
2022-12-03T16:13:38.278Z,99728.60
2022-12-03T16:15:44.698Z,99731.48
2022-12-03T16:17:51.765Z,99733.38
2022-12-03T16:19:57.018Z,99734.73
2022-12-03T16:22:02.789Z,99732.59
2022-12-03T16:24:08.345Z,99731.09
2022-12-03T16:26:13.036Z,99729.94
2022-12-03T16:28:18.174Z,99725.66
2022-12-03T16:30:23.461Z,99724.94
2022-12-03T16:32:31.818Z,99724.30
2022-12-03T16:34:37.053Z,99725.77
2022-12-03T16:36:43.327Z,99727.98
2022-12-03T16:38:48.754Z,99724.38
2022-12-03T16:40:53.973Z,99725.02
2022-12-03T16:42:58.996Z,99726.12
2022-12-03T16:45:05.822Z,99733.71
2022-12-03T16:47:10.838Z,99732.95
2022-12-03T16:49:16.978Z,99730.41
2022-12-03T16:51:22.654Z,99733.59
2022-12-03T16:53:28.377Z,99729.48
2022-12-03T16:55:35.316Z,99727.54
2022-12-03T16:57:40.215Z,99726.72
2022-12-03T16:59:45.219Z,99728.05
2022-12-03T17:01:50.000Z,99734.44
2022-12-03T17:03:56.129Z,99731.71
2022-12-03T17:06:01.515Z,99731.37
2022-12-03T17:08:08.464Z,99735.98
2022-12-03T17:10:14.736Z,99734.63
2022-12-03T17:12:19.545Z,99734.36
2022-12-03T17:14:27.345Z,99736.00
2022-12-03T17:16:36.431Z,99730.14
2022-12-03T17:18:41.109Z,99731.84
2022-12-03T17:20:46.279Z,99729.45
2022-12-03T17:22:51.031Z,99726.68
2022-12-03T17:24:56.278Z,99728.16
2022-12-03T17:27:01.519Z,99732.84
2022-12-03T17:29:06.545Z,99731.00
2022-12-03T17:31:11.598Z,99729.63
2022-12-03T17:33:16.419Z,99726.89
2022-12-03T17:35:21.525Z,99728.40
2022-12-03T17:37:26.852Z,99728.44
2022-12-03T17:39:31.627Z,99729.49
2022-12-03T17:41:37.157Z,99738.52
2022-12-03T17:43:42.200Z,99738.15
2022-12-03T17:45:47.392Z,99737.08
2022-12-03T17:47:52.214Z,99740.77
2022-12-03T17:49:59.320Z,99743.96
2022-12-03T17:52:06.586Z,99745.08
2022-12-03T17:54:14.318Z,99744.48
2022-12-03T17:56:19.079Z,99746.98
2022-12-03T17:58:24.238Z,99750.55
2022-12-03T18:00:29.061Z,99751.48
2022-12-03T18:02:34.446Z,99753.35
2022-12-03T18:04:39.102Z,99754.97
2022-12-03T18:06:43.953Z,99750.78
2022-12-03T18:08:48.814Z,99753.95
2022-12-03T18:10:55.762Z,99753.46
2022-12-03T18:13:02.101Z,99753.63
2022-12-03T18:15:15.381Z,99751.17
2022-12-03T18:17:20.953Z,99745.49
2022-12-03T18:19:26.603Z,99742.51
2022-12-03T18:21:32.721Z,99741.70
2022-12-03T18:23:39.508Z,99739.83
2022-12-03T18:25:45.071Z,99743.11
2022-12-03T18:27:50.051Z,99745.77
2022-12-03T18:29:56.298Z,99742.02
2022-12-03T18:32:02.555Z,99744.08
2022-12-03T18:34:07.694Z,99745.46
2022-12-03T18:36:19.035Z,99741.30
2022-12-03T18:38:36.845Z,99744.18
2022-12-03T18:40:47.854Z,99741.48
2022-12-03T18:42:53.540Z,99741.65
2022-12-03T18:45:01.830Z,99739.59
2022-12-03T18:47:14.858Z,99739.45
2022-12-03T18:49:23.753Z,99737.39
2022-12-03T18:51:31.601Z,99736.52
2022-12-03T18:53:40.464Z,99740.08
2022-12-03T18:55:50.404Z,99738.21
2022-12-03T18:57:57.945Z,99736.34
2022-12-03T19:00:10.224Z,99740.48
2022-12-03T19:04:50.239Z,99740.16
2022-12-03T19:06:56.837Z,99740.50
2022-12-03T19:09:03.036Z,99740.75
2022-12-03T19:11:10.148Z,99741.65
2022-12-03T19:13:15.985Z,99742.27
2022-12-03T19:15:23.289Z,99744.06
2022-12-03T19:17:29.542Z,99745.51
2022-12-03T19:19:35.620Z,99749.20
2022-12-03T19:21:42.010Z,99746.21
2022-12-03T19:24:22.207Z,99750.40
2022-12-03T19:26:15.636Z,99752.03
2022-12-03T19:28:21.591Z,99755.81
2022-12-03T19:30:30.996Z,99755.08
2022-12-03T19:32:38.065Z,99757.48
2022-12-03T19:34:48.906Z,99757.73
2022-12-03T19:36:56.652Z,99762.13
2022-12-03T19:39:03.705Z,99765.98
2022-12-03T19:41:17.779Z,99769.55
2022-12-03T19:43:24.314Z,99773.38
2022-12-03T19:45:32.282Z,99773.83
2022-12-03T19:47:39.561Z,99773.23
2022-12-03T19:49:45.754Z,99773.67
2022-12-03T19:51:52.255Z,99775.59
2022-12-03T19:53:58.078Z,99776.20
2022-12-03T19:56:10.191Z,99775.91
2022-12-03T19:58:16.842Z,99776.40
2022-12-03T20:00:23.534Z,99784.49
2022-12-03T20:02:31.127Z,99783.08
2022-12-03T20:04:40.889Z,99785.09
2022-12-03T20:06:49.187Z,99781.06
2022-12-03T20:09:03.866Z,99779.73
2022-12-03T20:11:16.240Z,99777.20
2022-12-03T20:13:22.190Z,99773.27
2022-12-03T20:15:28.352Z,99769.98
2022-12-03T20:17:52.479Z,99771.02
2022-12-03T20:19:59.139Z,99769.27
2022-12-03T20:22:05.656Z,99769.75
2022-12-03T20:24:13.745Z,99767.35
2022-12-03T20:26:21.651Z,99770.27
2022-12-03T20:28:28.083Z,99767.97
2022-12-03T20:30:36.543Z,99770.28
2022-12-03T20:32:45.731Z,99770.34
2022-12-03T20:34:52.024Z,99770.42
2022-12-03T20:36:58.416Z,99774.12
2022-12-03T20:39:06.713Z,99771.52
2022-12-03T20:41:14.795Z,99767.35
2022-12-03T20:43:21.746Z,99771.67
2022-12-03T20:45:27.563Z,99768.45
2022-12-03T20:47:36.015Z,99771.73
2022-12-03T20:49:42.119Z,99766.64
2022-12-03T20:51:50.111Z,99768.17
2022-12-03T20:53:56.484Z,99761.02
2022-12-03T20:56:02.801Z,99764.05
2022-12-03T20:58:09.373Z,99761.64
2022-12-03T21:00:16.900Z,99762.64
2022-12-03T21:02:23.277Z,99762.96
2022-12-03T21:04:29.509Z,99767.08
2022-12-03T21:06:37.190Z,99764.34
2022-12-03T21:08:43.637Z,99764.51
2022-12-03T21:10:49.082Z,99761.96
2022-12-03T21:12:54.598Z,99757.77
2022-12-03T21:15:01.062Z,99756.01
2022-12-03T21:17:09.225Z,99762.55
2022-12-03T21:19:15.429Z,99762.45
2022-12-03T21:21:21.845Z,99763.65
2022-12-03T21:23:27.274Z,99759.73
2022-12-03T21:25:33.764Z,99762.98
2022-12-03T21:27:38.903Z,99756.52
2022-12-03T21:29:44.656Z,99753.31
2022-12-03T21:31:50.207Z,99746.70
2022-12-03T21:33:57.392Z,99750.08
2022-12-03T21:36:03.511Z,99750.91
2022-12-03T21:38:08.310Z,99753.90
2022-12-03T21:40:14.481Z,99752.67
2022-12-03T21:42:36.024Z,99759.84
2022-12-03T21:44:41.705Z,99760.34
2022-12-03T21:47:09.264Z,99762.72
2022-12-03T21:49:13.060Z,99760.71
2022-12-03T21:51:19.483Z,99756.41
2022-12-03T21:53:25.014Z,99755.33
2022-12-03T21:55:29.966Z,99756.98
2022-12-03T21:57:36.827Z,99753.18
2022-12-03T21:59:41.779Z,99753.32
2022-12-03T22:01:48.003Z,99751.48
2022-12-03T22:03:52.857Z,99750.00
2022-12-03T22:05:57.689Z,99747.44
2022-12-03T22:08:02.713Z,99746.35
2022-12-03T22:10:10.838Z,99746.69
2022-12-03T22:12:15.597Z,99749.00
2022-12-03T22:14:20.391Z,99752.30
2022-12-03T22:16:25.255Z,99744.39
2022-12-03T22:18:30.017Z,99742.75
2022-12-03T22:20:34.774Z,99742.36
2022-12-03T22:22:39.484Z,99745.41
2022-12-03T22:24:44.156Z,99748.16
2022-12-03T22:26:48.888Z,99747.63
2022-12-03T22:28:53.667Z,99749.52
2022-12-03T22:30:58.388Z,99748.98
2022-12-03T22:33:03.287Z,99747.63
2022-12-03T22:35:09.060Z,99742.27
2022-12-03T22:37:13.708Z,99744.41
2022-12-03T22:39:18.506Z,99741.57
2022-12-03T22:41:23.208Z,99737.73
2022-12-03T22:43:28.010Z,99737.20
2022-12-03T22:45:34.666Z,99731.23
2022-12-03T22:47:39.371Z,99732.73
2022-12-03T22:49:44.051Z,99731.06
2022-12-03T22:51:49.064Z,99726.75
2022-12-03T22:53:57.511Z,99731.27
2022-12-03T22:56:02.217Z,99731.96
2022-12-03T22:58:08.002Z,99733.95
2022-12-03T23:00:15.017Z,99725.92
2022-12-03T23:02:19.731Z,99718.73
2022-12-03T23:04:24.493Z,99713.09
2022-12-03T23:06:30.233Z,99709.38
2022-12-03T23:08:34.899Z,99711.11
2022-12-03T23:10:42.515Z,99711.90
2022-12-03T23:12:47.133Z,99710.08
2022-12-03T23:14:54.980Z,99710.38
2022-12-03T23:16:59.711Z,99710.08
2022-12-03T23:19:04.935Z,99713.52
2022-12-03T23:21:09.620Z,99704.85
2022-12-03T23:23:14.486Z,99709.45
2022-12-03T23:25:19.926Z,99705.88
2022-12-03T23:27:24.561Z,99701.81
2022-12-03T23:29:29.418Z,99698.01
2022-12-03T23:31:35.271Z,99692.19
2022-12-03T23:33:40.026Z,99696.39
2022-12-03T23:35:44.641Z,99693.04
2022-12-03T23:37:49.320Z,99694.84
2022-12-03T23:39:54.284Z,99690.08
2022-12-03T23:41:59.151Z,99695.89
2022-12-03T23:44:03.805Z,99699.02
2022-12-03T23:46:10.891Z,99699.10
2022-12-03T23:48:15.591Z,99696.27
2022-12-03T23:50:20.405Z,99695.90
2022-12-03T23:52:25.079Z,99700.55
2022-12-03T23:54:29.843Z,99698.80
2022-12-03T23:56:34.621Z,99700.34
2022-12-03T23:58:39.423Z,99697.34
